sensor_id;sensor_type;location;lat;lon;timestamp;temperature;humidity
21678;DHT22;11000;50.360;7.582;2022-08-01T00:01:22;23.30;99.90
21678;DHT22;11000;50.360;7.582;2022-08-01T00:03:43;23.30;99.90
21678;DHT22;11000;50.360;7.582;2022-08-01T00:06:03;23.30;99.90
21678;DHT22;11000;50.360;7.582;2022-08-01T00:08:24;23.20;99.90
21678;DHT22;11000;50.360;7.582;2022-08-01T00:10:45;23.20;99.90
21678;DHT22;11000;50.360;7.582;2022-08-01T00:13:05;23.20;99.90
21678;DHT22;11000;50.360;7.582;2022-08-01T00:15:26;23.10;99.90
21678;DHT22;11000;50.360;7.582;2022-08-01T00:17:46;23.10;99.90
21678;DHT22;11000;50.360;7.582;2022-08-01T00:20:09;23.00;99.90
21678;DHT22;11000;50.360;7.582;2022-08-01T00:22:33;23.00;99.90
21678;DHT22;11000;50.360;7.582;2022-08-01T00:24:54;22.90;99.90
21678;DHT22;11000;50.360;7.582;2022-08-01T00:27:14;22.90;99.90
21678;DHT22;11000;50.360;7.582;2022-08-01T00:29:35;22.90;99.90
21678;DHT22;11000;50.360;7.582;2022-08-01T00:31:55;22.80;99.90
21678;DHT22;11000;50.360;7.582;2022-08-01T00:34:16;22.80;99.90
21678;DHT22;11000;50.360;7.582;2022-08-01T00:36:36;22.80;99.90
21678;DHT22;11000;50.360;7.582;2022-08-01T00:38:57;22.80;99.90
21678;DHT22;11000;50.360;7.582;2022-08-01T00:41:18;22.80;99.90
21678;DHT22;11000;50.360;7.582;2022-08-01T00:43:38;22.70;99.90
21678;DHT22;11000;50.360;7.582;2022-08-01T00:45:59;22.70;99.90
21678;DHT22;11000;50.360;7.582;2022-08-01T00:48:19;22.60;99.90
21678;DHT22;11000;50.360;7.582;2022-08-01T00:50:40;22.60;99.90
21678;DHT22;11000;50.360;7.582;2022-08-01T00:53:01;22.60;99.90
21678;DHT22;11000;50.360;7.582;2022-08-01T00:55:22;22.60;99.90
21678;DHT22;11000;50.360;7.582;2022-08-01T00:57:43;22.60;99.90
21678;DHT22;11000;50.360;7.582;2022-08-01T01:00:05;22.60;99.90
21678;DHT22;11000;50.360;7.582;2022-08-01T01:02:26;22.50;99.90
21678;DHT22;11000;50.360;7.582;2022-08-01T01:04:46;22.50;99.90
21678;DHT22;11000;50.360;7.582;2022-08-01T01:07:27;22.50;99.90
21678;DHT22;11000;50.360;7.582;2022-08-01T01:10:03;22.50;99.90
21678;DHT22;11000;50.360;7.582;2022-08-01T01:12:29;22.40;99.90
21678;DHT22;11000;50.360;7.582;2022-08-01T01:17:35;22.40;99.90
21678;DHT22;11000;50.360;7.582;2022-08-01T01:19:59;22.40;99.90
21678;DHT22;11000;50.360;7.582;2022-08-01T01:22:40;22.40;99.90
21678;DHT22;11000;50.360;7.582;2022-08-01T01:30:33;22.50;99.90
21678;DHT22;11000;50.360;7.582;2022-08-01T01:32:58;22.40;99.90
21678;DHT22;11000;50.360;7.582;2022-08-01T01:35:22;22.40;99.90
21678;DHT22;11000;50.360;7.582;2022-08-01T01:37:46;22.40;99.90
21678;DHT22;11000;50.360;7.582;2022-08-01T01:40:09;22.40;99.90
21678;DHT22;11000;50.360;7.582;2022-08-01T01:42:32;22.40;99.90
21678;DHT22;11000;50.360;7.582;2022-08-01T01:44:54;22.30;99.90
21678;DHT22;11000;50.360;7.582;2022-08-01T01:47:17;22.30;99.90
21678;DHT22;11000;50.360;7.582;2022-08-01T01:49:39;22.30;99.90
21678;DHT22;11000;50.360;7.582;2022-08-01T01:52:02;22.30;99.90
21678;DHT22;11000;50.360;7.582;2022-08-01T01:54:28;22.30;99.90
21678;DHT22;11000;50.360;7.582;2022-08-01T01:56:50;22.20;99.90
21678;DHT22;11000;50.360;7.582;2022-08-01T01:59:12;22.20;99.90
21678;DHT22;11000;50.360;7.582;2022-08-01T02:01:33;22.20;99.90
21678;DHT22;11000;50.360;7.582;2022-08-01T02:03:56;22.20;99.90
21678;DHT22;11000;50.360;7.582;2022-08-01T02:06:18;22.10;99.90
21678;DHT22;11000;50.360;7.582;2022-08-01T02:08:40;22.20;99.90
21678;DHT22;11000;50.360;7.582;2022-08-01T02:11:02;22.10;99.90
21678;DHT22;11000;50.360;7.582;2022-08-01T02:13:39;22.20;99.90
21678;DHT22;11000;50.360;7.582;2022-08-01T02:16:01;22.20;99.90
21678;DHT22;11000;50.360;7.582;2022-08-01T02:18:23;22.20;99.90
21678;DHT22;11000;50.360;7.582;2022-08-01T02:20:43;22.20;99.90
21678;DHT22;11000;50.360;7.582;2022-08-01T02:23:11;22.20;99.90
21678;DHT22;11000;50.360;7.582;2022-08-01T02:25:36;22.20;99.90
21678;DHT22;11000;50.360;7.582;2022-08-01T02:28:13;22.20;99.90
21678;DHT22;11000;50.360;7.582;2022-08-01T02:30:36;22.20;99.90
21678;DHT22;11000;50.360;7.582;2022-08-01T02:33:04;22.20;99.90
21678;DHT22;11000;50.360;7.582;2022-08-01T02:35:30;22.10;99.90
21678;DHT22;11000;50.360;7.582;2022-08-01T02:37:53;22.10;99.90
21678;DHT22;11000;50.360;7.582;2022-08-01T02:40:16;22.20;99.90
21678;DHT22;11000;50.360;7.582;2022-08-01T02:42:38;22.10;99.90
21678;DHT22;11000;50.360;7.582;2022-08-01T02:45:03;22.10;99.90
21678;DHT22;11000;50.360;7.582;2022-08-01T02:47:26;22.10;99.90
21678;DHT22;11000;50.360;7.582;2022-08-01T02:49:48;22.10;99.90
21678;DHT22;11000;50.360;7.582;2022-08-01T02:52:13;22.10;99.90
21678;DHT22;11000;50.360;7.582;2022-08-01T02:54:35;22.10;99.90
21678;DHT22;11000;50.360;7.582;2022-08-01T02:56:56;22.10;99.90
21678;DHT22;11000;50.360;7.582;2022-08-01T02:59:19;22.00;99.90
21678;DHT22;11000;50.360;7.582;2022-08-01T03:01:45;22.10;99.90
21678;DHT22;11000;50.360;7.582;2022-08-01T03:04:07;22.00;99.90
21678;DHT22;11000;50.360;7.582;2022-08-01T03:06:28;22.00;99.90
21678;DHT22;11000;50.360;7.582;2022-08-01T03:08:50;22.00;99.90
21678;DHT22;11000;50.360;7.582;2022-08-01T03:11:12;22.00;99.90
21678;DHT22;11000;50.360;7.582;2022-08-01T03:13:33;22.10;99.90
21678;DHT22;11000;50.360;7.582;2022-08-01T03:15:55;22.00;99.90
21678;DHT22;11000;50.360;7.582;2022-08-01T03:18:17;22.10;99.90
21678;DHT22;11000;50.360;7.582;2022-08-01T03:20:38;22.00;99.90
21678;DHT22;11000;50.360;7.582;2022-08-01T03:23:03;22.00;99.90
21678;DHT22;11000;50.360;7.582;2022-08-01T03:25:25;22.00;99.90
21678;DHT22;11000;50.360;7.582;2022-08-01T03:27:54;22.00;99.90
21678;DHT22;11000;50.360;7.582;2022-08-01T03:30:15;22.00;99.90
21678;DHT22;11000;50.360;7.582;2022-08-01T03:32:36;22.00;99.90
21678;DHT22;11000;50.360;7.582;2022-08-01T03:34:57;21.90;99.90
21678;DHT22;11000;50.360;7.582;2022-08-01T03:37:26;22.00;99.90
21678;DHT22;11000;50.360;7.582;2022-08-01T03:39:52;22.00;99.90
21678;DHT22;11000;50.360;7.582;2022-08-01T03:42:19;22.00;99.90
21678;DHT22;11000;50.360;7.582;2022-08-01T03:44:41;21.90;99.90
21678;DHT22;11000;50.360;7.582;2022-08-01T03:47:09;22.00;99.90
21678;DHT22;11000;50.360;7.582;2022-08-01T03:49:32;21.90;99.90
21678;DHT22;11000;50.360;7.582;2022-08-01T03:51:53;22.00;99.90
21678;DHT22;11000;50.360;7.582;2022-08-01T03:54:16;22.00;99.90
21678;DHT22;11000;50.360;7.582;2022-08-01T03:56:38;22.00;99.90
21678;DHT22;11000;50.360;7.582;2022-08-01T03:59:01;22.00;99.90
21678;DHT22;11000;50.360;7.582;2022-08-01T04:01:23;22.00;99.90
21678;DHT22;11000;50.360;7.582;2022-08-01T04:03:45;22.00;99.90
21678;DHT22;11000;50.360;7.582;2022-08-01T04:06:06;22.00;99.90
21678;DHT22;11000;50.360;7.582;2022-08-01T04:08:36;22.00;99.90
21678;DHT22;11000;50.360;7.582;2022-08-01T04:10:56;22.00;99.90
21678;DHT22;11000;50.360;7.582;2022-08-01T04:13:18;22.00;99.90
21678;DHT22;11000;50.360;7.582;2022-08-01T04:15:39;22.00;99.90
21678;DHT22;11000;50.360;7.582;2022-08-01T04:17:59;22.00;99.90
21678;DHT22;11000;50.360;7.582;2022-08-01T04:20:20;22.00;99.90
21678;DHT22;11000;50.360;7.582;2022-08-01T04:22:41;21.90;99.90
21678;DHT22;11000;50.360;7.582;2022-08-01T04:25:09;21.80;99.90
21678;DHT22;11000;50.360;7.582;2022-08-01T04:27:33;21.80;99.90
21678;DHT22;11000;50.360;7.582;2022-08-01T04:29:58;21.80;99.90
21678;DHT22;11000;50.360;7.582;2022-08-01T04:32:22;21.80;99.90
21678;DHT22;11000;50.360;7.582;2022-08-01T04:34:43;21.80;99.90
21678;DHT22;11000;50.360;7.582;2022-08-01T04:37:08;21.80;99.90
21678;DHT22;11000;50.360;7.582;2022-08-01T04:39:31;21.90;99.90
21678;DHT22;11000;50.360;7.582;2022-08-01T04:41:52;21.80;99.90
21678;DHT22;11000;50.360;7.582;2022-08-01T04:44:13;21.80;99.90
21678;DHT22;11000;50.360;7.582;2022-08-01T04:46:35;21.80;99.90
21678;DHT22;11000;50.360;7.582;2022-08-01T04:48:57;21.90;99.90
21678;DHT22;11000;50.360;7.582;2022-08-01T04:51:18;21.90;99.90
21678;DHT22;11000;50.360;7.582;2022-08-01T04:53:44;21.80;99.90
21678;DHT22;11000;50.360;7.582;2022-08-01T04:56:08;21.80;99.90
21678;DHT22;11000;50.360;7.582;2022-08-01T04:58:29;21.80;99.90
21678;DHT22;11000;50.360;7.582;2022-08-01T05:00:49;21.80;99.90
21678;DHT22;11000;50.360;7.582;2022-08-01T05:03:10;21.80;99.90
21678;DHT22;11000;50.360;7.582;2022-08-01T05:05:30;21.80;99.90
21678;DHT22;11000;50.360;7.582;2022-08-01T05:07:52;21.80;99.90
21678;DHT22;11000;50.360;7.582;2022-08-01T05:10:12;21.80;99.90
21678;DHT22;11000;50.360;7.582;2022-08-01T05:12:33;21.90;99.90
21678;DHT22;11000;50.360;7.582;2022-08-01T05:14:53;21.90;99.90
21678;DHT22;11000;50.360;7.582;2022-08-01T05:17:14;21.80;99.90
21678;DHT22;11000;50.360;7.582;2022-08-01T05:19:36;21.80;99.90
21678;DHT22;11000;50.360;7.582;2022-08-01T05:21:58;21.80;99.90
21678;DHT22;11000;50.360;7.582;2022-08-01T05:24:18;21.90;99.90
21678;DHT22;11000;50.360;7.582;2022-08-01T05:26:39;21.90;99.90
21678;DHT22;11000;50.360;7.582;2022-08-01T05:29:00;22.00;99.90
21678;DHT22;11000;50.360;7.582;2022-08-01T05:31:20;22.00;99.90
21678;DHT22;11000;50.360;7.582;2022-08-01T05:33:41;22.00;99.90
21678;DHT22;11000;50.360;7.582;2022-08-01T05:36:02;22.00;99.90
21678;DHT22;11000;50.360;7.582;2022-08-01T05:38:22;21.90;99.90
21678;DHT22;11000;50.360;7.582;2022-08-01T05:40:43;21.90;99.90
21678;DHT22;11000;50.360;7.582;2022-08-01T05:43:03;21.90;99.90
21678;DHT22;11000;50.360;7.582;2022-08-01T05:45:24;21.90;99.90
21678;DHT22;11000;50.360;7.582;2022-08-01T05:47:44;21.90;99.90
21678;DHT22;11000;50.360;7.582;2022-08-01T05:50:06;21.90;99.90
21678;DHT22;11000;50.360;7.582;2022-08-01T05:52:27;21.90;99.90
21678;DHT22;11000;50.360;7.582;2022-08-01T05:54:52;22.00;99.90
21678;DHT22;11000;50.360;7.582;2022-08-01T05:57:13;22.00;99.90
21678;DHT22;11000;50.360;7.582;2022-08-01T05:59:34;22.10;99.90
21678;DHT22;11000;50.360;7.582;2022-08-01T06:01:54;22.10;99.90
21678;DHT22;11000;50.360;7.582;2022-08-01T06:04:15;22.20;99.90
21678;DHT22;11000;50.360;7.582;2022-08-01T06:06:36;22.30;99.90
21678;DHT22;11000;50.360;7.582;2022-08-01T06:08:56;22.30;99.90
21678;DHT22;11000;50.360;7.582;2022-08-01T06:11:17;22.30;99.90
21678;DHT22;11000;50.360;7.582;2022-08-01T06:13:37;22.30;99.90
21678;DHT22;11000;50.360;7.582;2022-08-01T06:15:58;22.30;99.90
21678;DHT22;11000;50.360;7.582;2022-08-01T06:18:19;22.30;99.90
21678;DHT22;11000;50.360;7.582;2022-08-01T06:20:40;22.30;99.90
21678;DHT22;11000;50.360;7.582;2022-08-01T06:23:00;22.30;99.90
21678;DHT22;11000;50.360;7.582;2022-08-01T06:25:21;22.40;99.90
21678;DHT22;11000;50.360;7.582;2022-08-01T06:27:42;22.30;99.90
21678;DHT22;11000;50.360;7.582;2022-08-01T06:30:04;22.30;99.90
21678;DHT22;11000;50.360;7.582;2022-08-01T06:32:25;22.30;99.90
21678;DHT22;11000;50.360;7.582;2022-08-01T06:34:46;22.30;99.90
21678;DHT22;11000;50.360;7.582;2022-08-01T06:37:07;22.40;99.90
21678;DHT22;11000;50.360;7.582;2022-08-01T06:39:27;22.40;99.90
21678;DHT22;11000;50.360;7.582;2022-08-01T06:41:48;22.40;99.90
21678;DHT22;11000;50.360;7.582;2022-08-01T06:44:08;22.50;99.90
21678;DHT22;11000;50.360;7.582;2022-08-01T06:46:29;22.60;99.90
21678;DHT22;11000;50.360;7.582;2022-08-01T06:48:49;22.60;99.90
21678;DHT22;11000;50.360;7.582;2022-08-01T06:51:10;22.60;99.90
21678;DHT22;11000;50.360;7.582;2022-08-01T06:53:36;22.60;99.90
21678;DHT22;11000;50.360;7.582;2022-08-01T06:55:57;22.50;99.90
21678;DHT22;11000;50.360;7.582;2022-08-01T06:58:17;22.70;99.90
21678;DHT22;11000;50.360;7.582;2022-08-01T07:00:38;22.90;99.90
21678;DHT22;11000;50.360;7.582;2022-08-01T07:02:59;23.40;99.90
21678;DHT22;11000;50.360;7.582;2022-08-01T07:05:20;23.80;99.90
21678;DHT22;11000;50.360;7.582;2022-08-01T07:07:41;24.40;99.90
21678;DHT22;11000;50.360;7.582;2022-08-01T07:10:02;24.90;99.90
21678;DHT22;11000;50.360;7.582;2022-08-01T07:12:23;25.50;99.90
21678;DHT22;11000;50.360;7.582;2022-08-01T07:14:43;25.70;99.90
21678;DHT22;11000;50.360;7.582;2022-08-01T07:17:04;25.60;99.90
21678;DHT22;11000;50.360;7.582;2022-08-01T07:19:25;25.70;99.90
21678;DHT22;11000;50.360;7.582;2022-08-01T07:21:45;25.60;99.90
21678;DHT22;11000;50.360;7.582;2022-08-01T07:24:08;25.20;99.90
21678;DHT22;11000;50.360;7.582;2022-08-01T07:26:28;25.20;99.90
21678;DHT22;11000;50.360;7.582;2022-08-01T07:28:49;25.20;99.90
21678;DHT22;11000;50.360;7.582;2022-08-01T07:31:10;25.80;99.90
21678;DHT22;11000;50.360;7.582;2022-08-01T07:33:30;26.20;99.90
21678;DHT22;11000;50.360;7.582;2022-08-01T07:35:51;26.00;99.90
21678;DHT22;11000;50.360;7.582;2022-08-01T07:38:11;25.90;99.90
21678;DHT22;11000;50.360;7.582;2022-08-01T07:40:32;25.90;99.90
21678;DHT22;11000;50.360;7.582;2022-08-01T07:42:52;25.60;99.90
21678;DHT22;11000;50.360;7.582;2022-08-01T07:45:13;25.40;99.90
21678;DHT22;11000;50.360;7.582;2022-08-01T07:47:35;25.00;99.90
21678;DHT22;11000;50.360;7.582;2022-08-01T07:50:03;24.20;99.90
21678;DHT22;11000;50.360;7.582;2022-08-01T07:52:24;24.50;99.90
21678;DHT22;11000;50.360;7.582;2022-08-01T07:54:45;25.30;99.90
21678;DHT22;11000;50.360;7.582;2022-08-01T07:57:05;25.80;99.90
21678;DHT22;11000;50.360;7.582;2022-08-01T07:59:26;26.10;99.90
21678;DHT22;11000;50.360;7.582;2022-08-01T08:01:46;26.20;99.90
21678;DHT22;11000;50.360;7.582;2022-08-01T08:04:07;26.50;99.90
21678;DHT22;11000;50.360;7.582;2022-08-01T08:06:28;26.90;99.90
21678;DHT22;11000;50.360;7.582;2022-08-01T08:08:48;27.60;99.90
21678;DHT22;11000;50.360;7.582;2022-08-01T08:11:09;27.90;99.90
21678;DHT22;11000;50.360;7.582;2022-08-01T08:13:29;27.50;99.90
21678;DHT22;11000;50.360;7.582;2022-08-01T08:15:50;27.40;99.90
21678;DHT22;11000;50.360;7.582;2022-08-01T08:18:10;26.90;99.90
21678;DHT22;11000;50.360;7.582;2022-08-01T08:20:31;26.90;99.90
21678;DHT22;11000;50.360;7.582;2022-08-01T08:22:52;26.60;99.90
21678;DHT22;11000;50.360;7.582;2022-08-01T08:25:12;26.70;99.90
21678;DHT22;11000;50.360;7.582;2022-08-01T08:27:33;27.00;99.90
21678;DHT22;11000;50.360;7.582;2022-08-01T08:29:54;27.40;99.90
21678;DHT22;11000;50.360;7.582;2022-08-01T08:32:14;26.90;99.90
21678;DHT22;11000;50.360;7.582;2022-08-01T08:34:38;26.80;99.90
21678;DHT22;11000;50.360;7.582;2022-08-01T08:36:59;26.20;99.90
21678;DHT22;11000;50.360;7.582;2022-08-01T08:39:21;26.00;99.90
21678;DHT22;11000;50.360;7.582;2022-08-01T08:41:42;25.90;99.90
21678;DHT22;11000;50.360;7.582;2022-08-01T08:44:08;25.70;99.90
21678;DHT22;11000;50.360;7.582;2022-08-01T08:46:28;25.70;99.90
21678;DHT22;11000;50.360;7.582;2022-08-01T08:48:53;25.80;99.90
21678;DHT22;11000;50.360;7.582;2022-08-01T08:51:17;25.70;99.90
21678;DHT22;11000;50.360;7.582;2022-08-01T08:53:40;25.40;99.90
21678;DHT22;11000;50.360;7.582;2022-08-01T08:56:06;25.00;99.90
21678;DHT22;11000;50.360;7.582;2022-08-01T08:58:28;25.50;99.90
21678;DHT22;11000;50.360;7.582;2022-08-01T09:00:48;26.40;99.90
21678;DHT22;11000;50.360;7.582;2022-08-01T09:03:09;27.20;99.90
21678;DHT22;11000;50.360;7.582;2022-08-01T09:05:30;27.50;99.90
21678;DHT22;11000;50.360;7.582;2022-08-01T09:07:51;28.50;99.90
21678;DHT22;11000;50.360;7.582;2022-08-01T09:10:12;29.10;99.90
21678;DHT22;11000;50.360;7.582;2022-08-01T09:12:32;29.00;99.90
21678;DHT22;11000;50.360;7.582;2022-08-01T09:14:53;28.70;99.90
21678;DHT22;11000;50.360;7.582;2022-08-01T09:17:14;28.00;99.90
21678;DHT22;11000;50.360;7.582;2022-08-01T09:19:43;27.70;99.90
21678;DHT22;11000;50.360;7.582;2022-08-01T09:22:12;28.00;99.90
21678;DHT22;11000;50.360;7.582;2022-08-01T09:24:36;28.50;99.90
21678;DHT22;11000;50.360;7.582;2022-08-01T09:26:59;28.60;99.90
21678;DHT22;11000;50.360;7.582;2022-08-01T09:29:23;28.90;99.90
21678;DHT22;11000;50.360;7.582;2022-08-01T09:31:45;29.20;99.90
21678;DHT22;11000;50.360;7.582;2022-08-01T09:34:07;29.50;99.90
21678;DHT22;11000;50.360;7.582;2022-08-01T09:36:51;28.60;99.90
21678;DHT22;11000;50.360;7.582;2022-08-01T09:39:13;27.80;99.90
21678;DHT22;11000;50.360;7.582;2022-08-01T09:41:34;27.30;99.90
21678;DHT22;11000;50.360;7.582;2022-08-01T09:43:54;27.70;99.90
21678;DHT22;11000;50.360;7.582;2022-08-01T09:46:15;28.30;99.90
21678;DHT22;11000;50.360;7.582;2022-08-01T09:48:36;28.80;99.90
21678;DHT22;11000;50.360;7.582;2022-08-01T09:50:59;29.10;99.90
21678;DHT22;11000;50.360;7.582;2022-08-01T09:53:20;29.60;99.90
21678;DHT22;11000;50.360;7.582;2022-08-01T09:55:41;29.70;99.90
21678;DHT22;11000;50.360;7.582;2022-08-01T09:58:02;29.90;99.90
21678;DHT22;11000;50.360;7.582;2022-08-01T10:00:25;29.70;99.90
21678;DHT22;11000;50.360;7.582;2022-08-01T10:02:46;29.90;99.80
21678;DHT22;11000;50.360;7.582;2022-08-01T10:05:09;29.40;99.90
21678;DHT22;11000;50.360;7.582;2022-08-01T10:07:30;29.90;99.00
21678;DHT22;11000;50.360;7.582;2022-08-01T10:09:50;29.70;97.90
21678;DHT22;11000;50.360;7.582;2022-08-01T10:12:18;30.30;97.70
21678;DHT22;11000;50.360;7.582;2022-08-01T10:14:40;30.40;96.50
21678;DHT22;11000;50.360;7.582;2022-08-01T10:17:01;30.20;96.10
21678;DHT22;11000;50.360;7.582;2022-08-01T10:19:24;30.00;97.40
21678;DHT22;11000;50.360;7.582;2022-08-01T10:21:45;30.10;98.40
21678;DHT22;11000;50.360;7.582;2022-08-01T10:24:11;28.50;99.90
21678;DHT22;11000;50.360;7.582;2022-08-01T10:26:33;28.50;99.90
21678;DHT22;11000;50.360;7.582;2022-08-01T10:28:54;28.60;99.90
21678;DHT22;11000;50.360;7.582;2022-08-01T10:31:16;28.20;99.90
21678;DHT22;11000;50.360;7.582;2022-08-01T10:33:38;28.30;99.90
21678;DHT22;11000;50.360;7.582;2022-08-01T10:36:00;28.50;99.90
21678;DHT22;11000;50.360;7.582;2022-08-01T10:38:20;28.40;99.90
21678;DHT22;11000;50.360;7.582;2022-08-01T10:40:44;28.30;99.90
21678;DHT22;11000;50.360;7.582;2022-08-01T10:43:05;28.00;99.90
21678;DHT22;11000;50.360;7.582;2022-08-01T10:45:27;28.00;99.90
21678;DHT22;11000;50.360;7.582;2022-08-01T10:47:53;28.20;99.90
21678;DHT22;11000;50.360;7.582;2022-08-01T10:50:32;27.50;99.90
21678;DHT22;11000;50.360;7.582;2022-08-01T10:56:05;26.60;99.90
21678;DHT22;11000;50.360;7.582;2022-08-01T10:58:36;26.70;99.90
21678;DHT22;11000;50.360;7.582;2022-08-01T11:01:21;26.90;99.90
21678;DHT22;11000;50.360;7.582;2022-08-01T11:06:26;27.40;99.90
21678;DHT22;11000;50.360;7.582;2022-08-01T11:08:51;27.80;99.90
21678;DHT22;11000;50.360;7.582;2022-08-01T11:11:12;27.90;99.90
21678;DHT22;11000;50.360;7.582;2022-08-01T11:16:32;27.90;99.90
21678;DHT22;11000;50.360;7.582;2022-08-01T11:18:52;27.30;99.90
21678;DHT22;11000;50.360;7.582;2022-08-01T11:21:13;26.90;99.90
21678;DHT22;11000;50.360;7.582;2022-08-01T11:23:47;27.10;99.90
21678;DHT22;11000;50.360;7.582;2022-08-01T11:26:09;27.20;99.90
21678;DHT22;11000;50.360;7.582;2022-08-01T11:28:30;27.30;99.90
21678;DHT22;11000;50.360;7.582;2022-08-01T11:30:53;27.40;99.90
21678;DHT22;11000;50.360;7.582;2022-08-01T11:33:16;27.40;99.90
21678;DHT22;11000;50.360;7.582;2022-08-01T11:35:38;27.40;99.90
21678;DHT22;11000;50.360;7.582;2022-08-01T11:38:26;27.50;99.90
21678;DHT22;11000;50.360;7.582;2022-08-01T11:43:30;27.80;99.90
21678;DHT22;11000;50.360;7.582;2022-08-01T11:45:52;28.10;99.90
21678;DHT22;11000;50.360;7.582;2022-08-01T11:48:23;28.60;99.90
21678;DHT22;11000;50.360;7.582;2022-08-01T11:50:44;28.80;99.90
21678;DHT22;11000;50.360;7.582;2022-08-01T11:53:06;29.40;99.90
21678;DHT22;11000;50.360;7.582;2022-08-01T11:55:28;29.50;99.90
21678;DHT22;11000;50.360;7.582;2022-08-01T11:57:49;29.60;99.90
21678;DHT22;11000;50.360;7.582;2022-08-01T12:00:15;29.00;99.90
21678;DHT22;11000;50.360;7.582;2022-08-01T12:02:39;28.90;99.90
21678;DHT22;11000;50.360;7.582;2022-08-01T12:05:07;28.80;99.90
21678;DHT22;11000;50.360;7.582;2022-08-01T12:07:30;28.60;99.50
21678;DHT22;11000;50.360;7.582;2022-08-01T12:10:05;28.50;99.90
21678;DHT22;11000;50.360;7.582;2022-08-01T12:12:26;28.60;98.80
21678;DHT22;11000;50.360;7.582;2022-08-01T12:14:54;28.50;99.30
21678;DHT22;11000;50.360;7.582;2022-08-01T12:17:16;28.10;99.50
21678;DHT22;11000;50.360;7.582;2022-08-01T12:19:36;28.00;99.90
21678;DHT22;11000;50.360;7.582;2022-08-01T12:22:10;28.00;99.90
21678;DHT22;11000;50.360;7.582;2022-08-01T12:24:33;28.10;99.90
21678;DHT22;11000;50.360;7.582;2022-08-01T12:26:54;28.20;99.90
21678;DHT22;11000;50.360;7.582;2022-08-01T12:29:47;27.70;99.90
21678;DHT22;11000;50.360;7.582;2022-08-01T12:34:47;27.40;99.90
21678;DHT22;11000;50.360;7.582;2022-08-01T12:37:07;27.20;99.90
21678;DHT22;11000;50.360;7.582;2022-08-01T12:39:34;27.00;99.90
21678;DHT22;11000;50.360;7.582;2022-08-01T12:41:55;26.90;99.90
21678;DHT22;11000;50.360;7.582;2022-08-01T12:44:16;26.90;99.90
21678;DHT22;11000;50.360;7.582;2022-08-01T12:46:37;26.80;99.90
21678;DHT22;11000;50.360;7.582;2022-08-01T12:48:57;26.90;99.90
21678;DHT22;11000;50.360;7.582;2022-08-01T12:51:18;27.00;99.90
21678;DHT22;11000;50.360;7.582;2022-08-01T12:53:39;27.00;99.90
21678;DHT22;11000;50.360;7.582;2022-08-01T12:56:01;27.00;99.90
21678;DHT22;11000;50.360;7.582;2022-08-01T12:58:21;27.10;99.90
21678;DHT22;11000;50.360;7.582;2022-08-01T13:00:44;27.20;99.90
21678;DHT22;11000;50.360;7.582;2022-08-01T13:03:16;27.20;99.90
21678;DHT22;11000;50.360;7.582;2022-08-01T13:05:53;27.20;99.90
21678;DHT22;11000;50.360;7.582;2022-08-01T13:08:16;27.20;99.90
21678;DHT22;11000;50.360;7.582;2022-08-01T13:10:37;27.20;99.90
21678;DHT22;11000;50.360;7.582;2022-08-01T13:12:58;27.20;99.90
21678;DHT22;11000;50.360;7.582;2022-08-01T13:17:47;26.90;99.90
21678;DHT22;11000;50.360;7.582;2022-08-01T13:20:08;27.00;99.90
21678;DHT22;11000;50.360;7.582;2022-08-01T13:22:36;27.10;99.90
21678;DHT22;11000;50.360;7.582;2022-08-01T13:25:10;27.20;99.90
21678;DHT22;11000;50.360;7.582;2022-08-01T13:27:30;27.30;99.90
21678;DHT22;11000;50.360;7.582;2022-08-01T13:29:51;27.50;99.90
21678;DHT22;11000;50.360;7.582;2022-08-01T13:32:18;27.50;99.90
21678;DHT22;11000;50.360;7.582;2022-08-01T13:34:38;27.60;99.90
21678;DHT22;11000;50.360;7.582;2022-08-01T13:37:00;27.60;99.90
21678;DHT22;11000;50.360;7.582;2022-08-01T13:39:21;27.70;99.90
21678;DHT22;11000;50.360;7.582;2022-08-01T13:42:00;27.90;99.90
21678;DHT22;11000;50.360;7.582;2022-08-01T13:44:21;28.10;99.90
21678;DHT22;11000;50.360;7.582;2022-08-01T13:46:42;28.30;99.90
21678;DHT22;11000;50.360;7.582;2022-08-01T13:49:03;28.50;99.90
21678;DHT22;11000;50.360;7.582;2022-08-01T13:51:24;28.60;99.20
21678;DHT22;11000;50.360;7.582;2022-08-01T13:53:45;28.10;99.90
21678;DHT22;11000;50.360;7.582;2022-08-01T13:56:06;27.80;99.90
21678;DHT22;11000;50.360;7.582;2022-08-01T13:58:26;27.90;99.90
21678;DHT22;11000;50.360;7.582;2022-08-01T14:00:48;27.80;99.90
21678;DHT22;11000;50.360;7.582;2022-08-01T14:03:09;28.20;99.90
21678;DHT22;11000;50.360;7.582;2022-08-01T14:05:30;28.40;99.90
21678;DHT22;11000;50.360;7.582;2022-08-01T14:07:50;28.30;99.90
21678;DHT22;11000;50.360;7.582;2022-08-01T14:10:11;27.70;99.90
21678;DHT22;11000;50.360;7.582;2022-08-01T14:12:32;27.40;99.90
21678;DHT22;11000;50.360;7.582;2022-08-01T14:14:52;27.60;99.90
21678;DHT22;11000;50.360;7.582;2022-08-01T14:17:13;27.60;99.90
21678;DHT22;11000;50.360;7.582;2022-08-01T14:19:33;27.70;99.90
21678;DHT22;11000;50.360;7.582;2022-08-01T14:21:54;28.00;99.90
21678;DHT22;11000;50.360;7.582;2022-08-01T14:24:14;28.00;99.90
21678;DHT22;11000;50.360;7.582;2022-08-01T14:26:35;28.00;99.90
21678;DHT22;11000;50.360;7.582;2022-08-01T14:28:55;28.10;99.90
21678;DHT22;11000;50.360;7.582;2022-08-01T14:31:16;27.80;99.90
21678;DHT22;11000;50.360;7.582;2022-08-01T14:33:36;27.90;99.90
21678;DHT22;11000;50.360;7.582;2022-08-01T14:35:57;28.00;99.90
21678;DHT22;11000;50.360;7.582;2022-08-01T14:38:17;28.10;99.90
21678;DHT22;11000;50.360;7.582;2022-08-01T14:40:38;28.00;99.90
21678;DHT22;11000;50.360;7.582;2022-08-01T14:43:00;27.80;99.90
21678;DHT22;11000;50.360;7.582;2022-08-01T14:45:21;27.70;99.90
21678;DHT22;11000;50.360;7.582;2022-08-01T14:47:42;27.50;99.90
21678;DHT22;11000;50.360;7.582;2022-08-01T14:50:11;27.40;99.90
21678;DHT22;11000;50.360;7.582;2022-08-01T14:52:33;27.30;99.90
21678;DHT22;11000;50.360;7.582;2022-08-01T14:54:53;27.50;99.90
21678;DHT22;11000;50.360;7.582;2022-08-01T14:57:14;27.40;99.90
21678;DHT22;11000;50.360;7.582;2022-08-01T14:59:38;27.50;99.90
21678;DHT22;11000;50.360;7.582;2022-08-01T15:01:58;27.40;99.90
21678;DHT22;11000;50.360;7.582;2022-08-01T15:04:19;27.50;99.90
21678;DHT22;11000;50.360;7.582;2022-08-01T15:06:40;27.50;99.90
21678;DHT22;11000;50.360;7.582;2022-08-01T15:09:00;27.50;99.90
21678;DHT22;11000;50.360;7.582;2022-08-01T15:11:21;27.40;99.90
21678;DHT22;11000;50.360;7.582;2022-08-01T15:13:41;27.20;99.90
21678;DHT22;11000;50.360;7.582;2022-08-01T15:16:02;27.00;99.90
21678;DHT22;11000;50.360;7.582;2022-08-01T15:18:22;26.80;99.90
21678;DHT22;11000;50.360;7.582;2022-08-01T15:20:43;26.50;99.90
21678;DHT22;11000;50.360;7.582;2022-08-01T15:23:04;26.50;99.90
21678;DHT22;11000;50.360;7.582;2022-08-01T15:25:24;26.60;99.90